createdAt,value
2022-12-15T00:00:35.042Z,99136.63
2022-12-15T00:03:43.001Z,99134.56
2022-12-15T00:06:49.925Z,99143.53
2022-12-15T00:09:57.048Z,99152.59
2022-12-15T00:13:03.210Z,99150.09
2022-12-15T00:16:09.679Z,99152.94
2022-12-15T00:19:17.337Z,99156.28
2022-12-15T00:22:24.466Z,99149.75
2022-12-15T00:25:30.872Z,99146.69
2022-12-15T00:28:37.234Z,99145.06
2022-12-15T00:31:43.494Z,99143.84
2022-12-15T00:34:51.026Z,99136.72
2022-12-15T00:37:57.371Z,99136.28
2022-12-15T00:40:45.919Z,99148.56
2022-12-15T00:43:36.266Z,99158.34
2022-12-15T00:46:42.846Z,99146.94
2022-12-15T00:49:50.834Z,99157.81
2022-12-15T00:52:57.058Z,99162.69
2022-12-15T00:56:03.298Z,99171.03
2022-12-15T00:59:09.706Z,99171.91
2022-12-15T01:02:16.286Z,99170.00
2022-12-15T01:05:25.215Z,99171.31
2022-12-15T01:08:31.537Z,99170.28
2022-12-15T01:11:37.819Z,99173.34
2022-12-15T01:14:44.053Z,99181.38
2022-12-15T01:17:50.064Z,99182.22
2022-12-15T01:20:40.141Z,99188.72
2022-12-15T01:23:29.254Z,99191.38
2022-12-15T01:26:18.260Z,99199.38
2022-12-15T01:29:06.910Z,99210.09
2022-12-15T01:31:55.695Z,99206.59
2022-12-15T01:34:44.414Z,99217.66
2022-12-15T01:37:34.733Z,99221.69
2022-12-15T01:40:41.296Z,99217.22
2022-12-15T01:43:32.774Z,99219.28
2022-12-15T01:46:22.893Z,99223.94
2022-12-15T01:49:16.488Z,99226.41
2022-12-15T01:52:09.058Z,99230.88
2022-12-15T01:54:59.731Z,99235.59
2022-12-15T01:57:49.146Z,99244.00
2022-12-15T02:00:38.009Z,99244.41
2022-12-15T02:03:26.731Z,99254.63
2022-12-15T02:06:15.867Z,99251.78
2022-12-15T02:09:05.190Z,99257.25
2022-12-15T02:12:02.785Z,99247.66
2022-12-15T02:15:04.767Z,99247.25
2022-12-15T02:17:59.879Z,99253.00
2022-12-15T02:20:54.974Z,99252.00
2022-12-15T02:24:27.923Z,99254.63
2022-12-15T02:27:46.024Z,99263.47
2022-12-15T02:30:43.415Z,99267.78
2022-12-15T02:33:34.525Z,99260.81
2022-12-15T02:36:27.997Z,99267.78
2022-12-15T02:39:16.797Z,99270.25
2022-12-15T02:42:05.725Z,99274.31
2022-12-15T02:44:56.598Z,99274.72
2022-12-15T02:47:48.763Z,99268.22
2022-12-15T02:50:58.254Z,99266.53
2022-12-15T02:53:59.719Z,99275.97
2022-12-15T02:56:54.792Z,99268.59
2022-12-15T02:59:46.718Z,99270.63
2022-12-15T03:02:37.702Z,99280.69
2022-12-15T03:05:28.792Z,99296.63
2022-12-15T03:08:17.539Z,99297.66
2022-12-15T03:11:06.362Z,99301.78
2022-12-15T03:13:55.678Z,99300.31
2022-12-15T03:16:44.509Z,99304.63
2022-12-15T03:19:33.209Z,99308.31
2022-12-15T03:22:23.273Z,99309.13
2022-12-15T03:25:11.928Z,99316.09
2022-12-15T03:28:00.737Z,99327.94
2022-12-15T03:30:51.438Z,99327.94
2022-12-15T03:33:41.666Z,99323.06
2022-12-15T03:36:30.288Z,99336.53
2022-12-15T03:39:20.313Z,99330.00
2022-12-15T03:42:08.849Z,99333.03
2022-12-15T03:44:57.533Z,99342.06
2022-12-15T03:47:46.695Z,99351.31
2022-12-15T03:50:35.635Z,99354.56
2022-12-15T03:53:24.259Z,99352.91
2022-12-15T03:56:14.224Z,99350.06
2022-12-15T03:59:02.844Z,99357.22
2022-12-15T04:01:51.643Z,99351.91
2022-12-15T04:04:40.291Z,99351.31
2022-12-15T04:07:28.911Z,99356.19
2022-12-15T04:10:17.758Z,99367.03
2022-12-15T04:13:09.319Z,99370.50
2022-12-15T04:15:57.913Z,99377.47
2022-12-15T04:18:46.648Z,99385.63
2022-12-15T04:21:34.246Z,99390.75
2022-12-15T04:24:40.498Z,99389.75
2022-12-15T04:27:46.873Z,99396.50
2022-12-15T04:30:54.607Z,99399.78
2022-12-15T04:34:04.922Z,99399.16
2022-12-15T04:37:12.598Z,99403.25
2022-12-15T04:40:18.814Z,99411.84
2022-12-15T04:43:24.973Z,99422.91
2022-12-15T04:46:32.682Z,99421.69
2022-12-15T04:49:39.027Z,99427.00
2022-12-15T04:52:45.517Z,99434.38
2022-12-15T04:55:54.309Z,99439.28
2022-12-15T04:59:00.569Z,99449.09
2022-12-15T05:02:08.712Z,99436.41
2022-12-15T05:05:15.008Z,99435.16
2022-12-15T05:08:21.407Z,99442.34
2022-12-15T05:11:27.756Z,99440.09
2022-12-15T05:14:34.012Z,99442.13
2022-12-15T05:17:42.123Z,99443.38
2022-12-15T05:20:50.061Z,99452.75
2022-12-15T05:23:56.581Z,99461.75
2022-12-15T05:27:02.971Z,99463.41
2022-12-15T05:30:09.158Z,99464.00
2022-12-15T05:32:59.178Z,99464.22
2022-12-15T05:35:47.776Z,99471.19
2022-12-15T05:38:36.379Z,99474.88
2022-12-15T05:41:25.114Z,99478.53
2022-12-15T05:44:14.237Z,99473.63
2022-12-15T05:47:02.951Z,99478.09
2022-12-15T05:49:52.963Z,99479.34
2022-12-15T05:52:46.221Z,99488.97
2022-12-15T05:55:37.712Z,99487.94
2022-12-15T05:58:26.481Z,99503.91
2022-12-15T06:01:17.013Z,99507.59
2022-12-15T06:04:05.927Z,99503.53
2022-12-15T06:06:55.884Z,99509.22
2022-12-15T06:09:44.488Z,99515.56
2022-12-15T06:12:33.217Z,99511.50
2022-12-15T06:15:21.966Z,99521.31
2022-12-15T06:18:10.811Z,99521.47
2022-12-15T06:21:00.281Z,99528.44
2022-12-15T06:23:50.250Z,99537.22
2022-12-15T06:26:40.387Z,99533.34
2022-12-15T06:29:29.185Z,99534.34
2022-12-15T06:32:17.876Z,99539.47
2022-12-15T06:35:07.234Z,99544.78
2022-12-15T06:37:55.903Z,99553.78
2022-12-15T06:40:45.923Z,99561.13
2022-12-15T06:43:35.555Z,99567.66
2022-12-15T06:46:25.445Z,99573.22
2022-12-15T06:49:14.497Z,99568.09
2022-12-15T06:52:05.882Z,99575.66
2022-12-15T06:54:54.555Z,99585.84
2022-12-15T06:57:44.676Z,99581.19
2022-12-15T07:00:36.643Z,99584.47
2022-12-15T07:03:25.650Z,99591.81
2022-12-15T07:06:16.465Z,99585.88
2022-12-15T07:09:07.116Z,99591.00
2022-12-15T07:11:55.758Z,99601.44
2022-12-15T07:14:51.583Z,99603.03
2022-12-15T07:17:42.081Z,99600.63
2022-12-15T07:20:30.796Z,99603.66
2022-12-15T07:23:34.245Z,99601.22
2022-12-15T07:26:31.581Z,99611.50
2022-12-15T07:29:23.429Z,99614.38
2022-12-15T07:32:13.941Z,99619.72
2022-12-15T07:35:05.401Z,99614.41
2022-12-15T07:37:54.070Z,99620.13
2022-12-15T07:40:42.730Z,99618.91
2022-12-15T07:43:32.815Z,99625.88
2022-12-15T07:46:21.957Z,99638.16
2022-12-15T07:49:12.170Z,99631.19
2022-12-15T07:52:00.826Z,99642.25
2022-12-15T07:54:51.678Z,99646.31
2022-12-15T07:57:40.599Z,99654.06
2022-12-15T08:00:29.346Z,99651.41
2022-12-15T08:03:18.102Z,99648.69
2022-12-15T08:06:10.056Z,99643.38
2022-12-15T08:08:58.659Z,99638.47
2022-12-15T08:11:47.540Z,99639.88
2022-12-15T08:14:36.970Z,99644.97
2022-12-15T08:17:25.562Z,99650.50
2022-12-15T08:20:15.263Z,99662.56
2022-12-15T08:23:05.317Z,99663.19
2022-12-15T08:25:53.869Z,99655.63
2022-12-15T08:28:43.182Z,99664.25
2022-12-15T08:31:33.060Z,99671.19
2022-12-15T08:34:22.135Z,99676.13
2022-12-15T08:37:10.978Z,99683.94
2022-12-15T08:40:00.980Z,99684.34
2022-12-15T08:42:49.792Z,99689.03
2022-12-15T08:45:38.718Z,99686.00
2022-12-15T08:48:27.435Z,99690.47
2022-12-15T08:51:16.353Z,99694.97
2022-12-15T08:54:05.149Z,99701.09
2022-12-15T08:56:55.192Z,99695.78
2022-12-15T08:59:44.073Z,99694.75
2022-12-15T09:02:32.942Z,99690.13
2022-12-15T09:05:21.662Z,99680.88
2022-12-15T09:08:10.245Z,99689.31
2022-12-15T09:10:59.519Z,99681.19
2022-12-15T09:13:49.533Z,99688.56
2022-12-15T09:16:38.413Z,99692.63
2022-12-15T09:19:27.866Z,99694.28
2022-12-15T09:22:16.503Z,99691.22
2022-12-15T09:25:05.459Z,99694.06
2022-12-15T09:27:54.109Z,99696.31
2022-12-15T09:30:44.095Z,99707.78
2022-12-15T09:33:33.274Z,99709.41
2022-12-15T09:36:22.379Z,99703.69
2022-12-15T09:39:12.356Z,99698.91
2022-12-15T09:42:02.024Z,99700.00
2022-12-15T09:44:52.252Z,99702.91
2022-12-15T09:47:46.398Z,99701.22
2022-12-15T09:50:38.413Z,99705.13
2022-12-15T09:53:54.213Z,99699.56
2022-12-15T09:56:49.897Z,99716.31
2022-12-15T09:59:45.027Z,99717.31
2022-12-15T10:03:22.619Z,99715.03
2022-12-15T10:06:17.772Z,99717.31
2022-12-15T10:09:18.272Z,99717.09
2022-12-15T10:12:12.299Z,99719.59
2022-12-15T10:15:10.162Z,99726.09
2022-12-15T10:18:02.994Z,99716.50
2022-12-15T10:20:54.974Z,99729.00
2022-12-15T10:23:45.017Z,99731.88
2022-12-15T10:26:39.046Z,99736.34
2022-12-15T10:29:35.678Z,99729.84
2022-12-15T10:32:29.678Z,99738.44
2022-12-15T10:35:20.173Z,99743.78
2022-12-15T10:38:26.535Z,99736.44
2022-12-15T10:41:18.300Z,99743.59
2022-12-15T10:44:30.275Z,99739.91
2022-12-15T10:47:23.392Z,99744.22
2022-12-15T10:53:41.336Z,99742.56
2022-12-15T10:59:40.842Z,99744.25
2022-12-15T11:02:36.838Z,99746.47
2022-12-15T11:05:26.111Z,99747.13
2022-12-15T11:08:17.408Z,99736.44
2022-12-15T11:11:45.738Z,99753.22
2022-12-15T11:14:45.784Z,99735.63
2022-12-15T11:17:43.355Z,99739.50
2022-12-15T11:20:35.231Z,99747.13
2022-12-15T11:23:28.809Z,99746.28
2022-12-15T11:26:26.748Z,99738.91
2022-12-15T11:29:23.312Z,99744.22
2022-12-15T11:32:13.626Z,99729.09
2022-12-15T11:35:02.621Z,99732.38
2022-12-15T11:37:53.775Z,99724.78
2022-12-15T11:40:43.125Z,99729.50
2022-12-15T11:44:00.956Z,99727.84
2022-12-15T11:46:57.591Z,99723.78
2022-12-15T11:50:16.303Z,99732.78
2022-12-15T11:53:30.488Z,99738.31
2022-12-15T11:56:26.144Z,99736.88
2022-12-15T11:59:33.510Z,99732.56
2022-12-15T12:02:42.470Z,99728.28
2022-12-15T12:05:39.345Z,99735.66
2022-12-15T12:08:43.975Z,99730.56
2022-12-15T12:11:36.985Z,99732.97
2022-12-15T12:14:36.093Z,99725.00
2022-12-15T12:17:33.858Z,99713.75
2022-12-15T12:20:24.287Z,99719.69
2022-12-15T12:23:19.240Z,99716.41
2022-12-15T12:26:12.334Z,99702.91
2022-12-15T12:29:04.784Z,99704.94
2022-12-15T12:32:04.480Z,99709.88
2022-12-15T12:35:31.898Z,99705.75
2022-12-15T12:38:12.495Z,99706.56
2022-12-15T12:41:05.378Z,99702.47
2022-12-15T12:43:58.143Z,99698.38
2022-12-15T12:46:50.623Z,99707.81
2022-12-15T12:49:43.166Z,99703.28
2022-12-15T12:52:33.060Z,99712.72
2022-12-15T12:55:29.014Z,99713.53
2022-12-15T12:58:35.762Z,99720.09
2022-12-15T13:01:28.703Z,99706.16
2022-12-15T13:04:40.684Z,99714.75
2022-12-15T13:07:31.750Z,99720.25
2022-12-15T13:10:22.376Z,99720.50
2022-12-15T13:13:18.270Z,99712.28
2022-12-15T13:16:11.430Z,99712.28
2022-12-15T13:19:05.107Z,99703.69
2022-12-15T13:21:56.862Z,99705.31
2022-12-15T13:24:50.357Z,99705.31
2022-12-15T13:27:40.638Z,99704.53
2022-12-15T13:30:29.438Z,99706.56
2022-12-15T13:33:20.716Z,99700.63
2022-12-15T13:36:09.285Z,99698.78
2022-12-15T13:38:58.262Z,99707.41
2022-12-15T13:42:38.390Z,99708.63
2022-12-15T13:45:36.516Z,99719.06
2022-12-15T13:48:33.571Z,99720.53
2022-12-15T13:51:30.426Z,99711.50
2022-12-15T13:54:21.920Z,99715.56
2022-12-15T13:57:12.232Z,99723.78
2022-12-15T14:00:05.145Z,99722.78
2022-12-15T14:03:06.862Z,99722.34
2022-12-15T14:05:58.845Z,99723.97
2022-12-15T14:08:50.803Z,99731.16
2022-12-15T14:11:53.128Z,99727.91
2022-12-15T14:14:49.210Z,99743.03
2022-12-15T14:17:38.322Z,99743.03
2022-12-15T14:20:29.534Z,99740.97
2022-12-15T14:23:23.682Z,99726.03
2022-12-15T14:26:13.702Z,99726.63
2022-12-15T14:29:06.787Z,99723.75
2022-12-15T14:31:57.424Z,99723.00
2022-12-15T14:34:50.914Z,99727.19
2022-12-15T14:37:39.730Z,99724.63
2022-12-15T14:40:30.306Z,99713.00
2022-12-15T14:43:21.862Z,99727.72
2022-12-15T14:46:12.866Z,99728.94
2022-12-15T14:49:04.668Z,99731.22
2022-12-15T14:51:55.061Z,99731.34
2022-12-15T14:54:53.658Z,99737.34
2022-12-15T14:57:51.939Z,99738.16
2022-12-15T15:01:07.351Z,99734.63
2022-12-15T15:03:04.146Z,99752.00
2022-12-15T15:03:10.517Z,99744.63
2022-12-15T15:04:00.194Z,99725.88
2022-12-15T15:06:52.147Z,99731.97
2022-12-15T15:09:45.443Z,99729.56
2022-12-15T15:12:43.522Z,99719.72
2022-12-15T15:15:33.658Z,99731.22
2022-12-15T15:18:25.784Z,99716.44
2022-12-15T15:21:18.484Z,99725.88
2022-12-15T15:24:26.097Z,99729.94
2022-12-15T15:27:31.244Z,99726.91
2022-12-15T15:30:25.137Z,99729.13
2022-12-15T15:33:15.506Z,99729.94
2022-12-15T15:36:05.053Z,99727.53
2022-12-15T15:38:53.747Z,99727.59
2022-12-15T15:41:42.634Z,99730.25
2022-12-15T15:44:32.441Z,99730.28
2022-12-15T15:47:23.581Z,99724.72
2022-12-15T15:50:16.912Z,99714.13
2022-12-15T15:53:06.037Z,99714.13
2022-12-15T15:55:55.649Z,99712.25
2022-12-15T15:58:44.826Z,99723.72
2022-12-15T16:01:33.572Z,99723.94
2022-12-15T16:04:22.322Z,99741.97
2022-12-15T16:07:20.193Z,99739.16
2022-12-15T16:10:14.553Z,99739.72
2022-12-15T16:13:03.755Z,99741.78
2022-12-15T16:15:52.571Z,99740.31
2022-12-15T16:18:41.383Z,99747.69
2022-12-15T16:21:30.139Z,99738.63
2022-12-15T16:24:20.576Z,99754.94
2022-12-15T16:27:11.430Z,99757.44
2022-12-15T16:30:00.517Z,99756.66
2022-12-15T16:32:49.115Z,99759.31
2022-12-15T16:35:38.252Z,99754.78
2022-12-15T16:38:31.603Z,99750.91
2022-12-15T16:41:23.272Z,99754.19
2022-12-15T16:44:14.408Z,99752.53
2022-12-15T16:47:03.067Z,99756.38
2022-12-15T16:49:51.896Z,99761.31
2022-12-15T16:52:40.891Z,99767.06
2022-12-15T16:55:33.835Z,99781.16
2022-12-15T16:58:27.872Z,99784.44
2022-12-15T17:01:16.941Z,99786.06
2022-12-15T17:04:06.012Z,99777.88
2022-12-15T17:06:54.809Z,99778.97
2022-12-15T17:09:43.586Z,99777.97
2022-12-15T17:12:32.288Z,99771.78
2022-12-15T17:15:24.784Z,99772.84
2022-12-15T17:18:14.917Z,99774.72
2022-12-15T17:21:06.292Z,99779.97
2022-12-15T17:23:58.361Z,99781.63
2022-12-15T17:26:47.316Z,99786.31
2022-12-15T17:29:35.969Z,99784.78
2022-12-15T17:32:25.986Z,99783.41
2022-12-15T17:35:14.742Z,99777.25
2022-12-15T17:38:06.430Z,99780.47
2022-12-15T17:40:57.585Z,99773.78
2022-12-15T17:43:49.065Z,99771.66
2022-12-15T17:46:53.309Z,99772.47
2022-12-15T17:49:43.379Z,99770.25
2022-12-15T17:52:34.388Z,99764.94
2022-12-15T17:55:30.329Z,99774.16
2022-12-15T17:58:25.346Z,99776.22
2022-12-15T18:01:15.047Z,99778.72
2022-12-15T18:04:03.743Z,99774.69
2022-12-15T18:06:59.692Z,99765.53
2022-12-15T18:09:50.624Z,99762.84
2022-12-15T18:12:39.351Z,99763.72
2022-12-15T18:15:29.595Z,99757.56
2022-12-15T18:18:19.097Z,99750.81
2022-12-15T18:21:14.697Z,99749.56
2022-12-15T18:24:05.198Z,99744.25
2022-12-15T18:26:53.876Z,99755.75
2022-12-15T18:29:42.525Z,99759.41
2022-12-15T18:32:31.254Z,99764.31
2022-12-15T18:35:23.669Z,99766.78
2022-12-15T18:38:17.479Z,99763.13
2022-12-15T18:41:07.957Z,99777.91
2022-12-15T18:43:58.612Z,99780.13
2022-12-15T18:46:50.338Z,99779.91
2022-12-15T18:49:38.986Z,99775.41
2022-12-15T18:52:32.992Z,99774.19
2022-12-15T18:55:24.130Z,99771.28
2022-12-15T18:58:22.431Z,99764.34
2022-12-15T19:01:11.705Z,99760.88
2022-12-15T19:04:00.351Z,99766.59
2022-12-15T19:06:48.970Z,99763.13
2022-12-15T19:09:37.757Z,99758.63
2022-12-15T19:12:26.354Z,99752.50
2022-12-15T19:15:18.998Z,99766.84
2022-12-15T19:18:25.261Z,99763.56
2022-12-15T19:21:34.897Z,99753.69
2022-12-15T19:24:40.352Z,99749.19
2022-12-15T19:27:29.028Z,99759.84
2022-12-15T19:30:20.395Z,99750.84
2022-12-15T19:33:09.486Z,99759.44
2022-12-15T19:35:58.189Z,99761.06
2022-12-15T19:38:47.516Z,99761.50
2022-12-15T19:41:38.102Z,99770.09
2022-12-15T19:44:27.533Z,99760.69
2022-12-15T19:47:17.736Z,99760.53
2022-12-15T19:50:06.969Z,99757.44
2022-12-15T19:53:01.157Z,99756.03
2022-12-15T19:55:50.010Z,99764.41
2022-12-15T19:58:38.752Z,99755.38
2022-12-15T20:01:27.542Z,99760.31
2022-12-15T20:04:22.382Z,99753.34
2022-12-15T20:07:17.720Z,99751.28
2022-12-15T20:10:08.728Z,99749.44
2022-12-15T20:12:58.546Z,99745.53
2022-12-15T20:15:47.363Z,99745.50
2022-12-15T20:18:36.209Z,99739.38
2022-12-15T20:21:31.371Z,99744.25
2022-12-15T20:24:21.336Z,99735.63
2022-12-15T20:27:14.129Z,99731.91
2022-12-15T20:30:02.751Z,99733.09
2022-12-15T20:32:55.671Z,99729.00
2022-12-15T20:35:45.550Z,99732.69
2022-12-15T20:38:35.881Z,99723.22
2022-12-15T20:41:26.304Z,99716.63
2022-12-15T20:44:15.095Z,99702.06
2022-12-15T20:47:03.696Z,99697.75
2022-12-15T20:49:54.749Z,99703.53
2022-12-15T20:52:43.542Z,99694.59
2022-12-15T20:55:33.984Z,99688.47
2022-12-15T20:58:27.058Z,99686.44
2022-12-15T21:01:20.460Z,99683.97
2022-12-15T21:04:21.522Z,99689.34
2022-12-15T21:07:12.053Z,99682.78
2022-12-15T21:10:00.709Z,99675.47
2022-12-15T21:12:51.559Z,99670.91
2022-12-15T21:15:40.127Z,99669.28
2022-12-15T21:19:03.956Z,99682.81
2022-12-15T21:21:39.128Z,99679.97
2022-12-15T21:24:29.138Z,99667.25
2022-12-15T21:27:17.801Z,99666.66
2022-12-15T21:30:17.003Z,99660.13
2022-12-15T21:33:05.717Z,99658.25
2022-12-15T21:35:54.829Z,99658.47
2022-12-15T21:38:44.290Z,99659.09
2022-12-15T21:41:33.641Z,99660.75
2022-12-15T21:44:22.386Z,99669.75
2022-12-15T21:47:24.553Z,99656.22
2022-12-15T21:50:12.222Z,99655.41
2022-12-15T21:53:01.339Z,99662.97
2022-12-15T21:55:49.972Z,99668.91
2022-12-15T21:58:38.976Z,99666.06
2022-12-15T22:01:31.122Z,99664.00
2022-12-15T22:04:22.950Z,99671.78
2022-12-15T22:07:12.267Z,99665.44
2022-12-15T22:10:00.894Z,99663.59
2022-12-15T22:12:58.988Z,99675.88
2022-12-15T22:15:48.971Z,99674.03
2022-12-15T22:18:37.703Z,99673.41
2022-12-15T22:21:28.103Z,99676.28
2022-12-15T22:24:19.144Z,99678.97
2022-12-15T22:27:08.035Z,99679.56
2022-12-15T22:29:57.393Z,99678.75
2022-12-15T22:32:46.343Z,99677.91
2022-12-15T22:35:34.951Z,99678.75
2022-12-15T22:38:25.631Z,99680.78
2022-12-15T22:41:19.491Z,99680.41
2022-12-15T22:44:15.436Z,99679.56
2022-12-15T22:47:04.905Z,99689.00
2022-12-15T22:49:53.601Z,99696.75
2022-12-15T22:52:45.553Z,99691.03
2022-12-15T22:55:35.530Z,99689.19
2022-12-15T22:58:26.394Z,99684.91
2022-12-15T23:01:15.176Z,99691.84
2022-12-15T23:04:04.016Z,99684.47
2022-12-15T23:06:54.925Z,99693.06
2022-12-15T23:09:43.613Z,99697.97
2022-12-15T23:12:32.675Z,99701.28
2022-12-15T23:15:38.845Z,99713.94
2022-12-15T23:18:27.450Z,99707.00
2022-12-15T23:21:16.045Z,99707.59
2022-12-15T23:24:04.728Z,99706.19
2022-12-15T23:26:53.612Z,99697.56
2022-12-15T23:29:43.628Z,99683.25
2022-12-15T23:32:33.344Z,99668.09
2022-12-15T23:35:21.961Z,99658.66
2022-12-15T23:38:10.557Z,99654.16
2022-12-15T23:40:59.759Z,99660.69
2022-12-15T23:43:48.635Z,99656.00
2022-12-15T23:46:38.709Z,99658.63
2022-12-15T23:49:27.485Z,99660.50
2022-12-15T23:52:17.876Z,99655.59
2022-12-15T23:55:09.931Z,99664.78
2022-12-15T23:57:59.075Z,99659.03
